Terminal Aerodrome Forecast
Issued by NWS Wichita, KS

Home | Current Version | Previous Version | Text Only | Print | Product List | Glossary On
Versions: 1 2 3 4 5 6 7 8 9 10 11 12 13 14 15 16 17 18 19 20 21 22 23
000
FTUS43 KICT 141121
TAFICT
TAF
KICT 141121Z 1412/1512 16005KT P6SM BKN007 BKN015
      TEMPO 1412/1413 4SM BR
     FM141500 16005KT P6SM SCT007 BKN015
     FM141600 16006KT P6SM BKN030
     FM141700 17010KT P6SM SCT040
     FM150000 16008KT P6SM SCT120
     FM151100 14005KT P6SM BKN025=

USA.gov is the U.S. government's official web portal to all federal, state and local government web resources and services.